createdAt,value
2022-08-26T00:00:06.285Z,991.89
2022-08-26T00:01:06.285Z,991.93
2022-08-26T00:02:06.347Z,991.88
2022-08-26T00:03:06.353Z,991.96
2022-08-26T00:04:06.278Z,991.91
2022-08-26T00:05:06.226Z,991.93
2022-08-26T00:06:06.209Z,992.00
2022-08-26T00:07:06.189Z,991.93
2022-08-26T00:08:06.216Z,991.97
2022-08-26T00:09:08.071Z,991.97
2022-08-26T00:10:06.162Z,991.94
2022-08-26T00:11:06.140Z,991.98
2022-08-26T00:12:06.145Z,992.02
2022-08-26T00:13:06.401Z,991.99
2022-08-26T00:14:06.473Z,992.01
2022-08-26T00:15:06.093Z,991.99
2022-08-26T00:16:06.140Z,992.03
2022-08-26T00:17:06.077Z,992.03
2022-08-26T00:18:16.809Z,992.11
2022-08-26T00:19:07.045Z,992.21
2022-08-26T00:20:06.145Z,992.28
2022-08-26T00:21:06.413Z,992.20
2022-08-26T00:22:06.029Z,992.18
2022-08-26T00:23:06.204Z,992.17
2022-08-26T00:24:05.986Z,992.23
2022-08-26T00:25:06.039Z,992.29
2022-08-26T00:26:05.976Z,992.37
2022-08-26T00:27:06.357Z,992.40
2022-08-26T00:28:05.945Z,992.34
2022-08-26T00:29:05.926Z,992.28
2022-08-26T00:30:05.913Z,992.27
2022-08-26T00:31:05.944Z,992.30
2022-08-26T00:32:05.952Z,992.32
2022-08-26T00:33:06.043Z,992.24
2022-08-26T00:34:05.861Z,992.29
2022-08-26T00:35:05.852Z,992.23
2022-08-26T00:36:05.841Z,992.26
2022-08-26T00:37:09.394Z,992.23
2022-08-26T00:38:05.825Z,992.30
2022-08-26T00:39:05.803Z,992.21
2022-08-26T00:40:05.872Z,992.21
2022-08-26T00:41:05.784Z,992.23
2022-08-26T00:42:05.806Z,992.25
2022-08-26T00:43:09.470Z,992.22
2022-08-26T00:44:05.769Z,992.28
2022-08-26T00:45:10.209Z,992.26
2022-08-26T00:46:06.836Z,992.25
2022-08-26T00:47:05.727Z,992.21
2022-08-26T00:48:05.739Z,992.22
2022-08-26T00:49:12.225Z,992.29
2022-08-26T00:50:06.671Z,992.29
2022-08-26T00:51:05.659Z,992.25
2022-08-26T00:52:05.663Z,992.29
2022-08-26T00:53:05.892Z,992.26
2022-08-26T00:54:05.719Z,992.29
2022-08-26T00:55:05.618Z,992.29
2022-08-26T00:56:05.600Z,992.30
2022-08-26T00:57:05.596Z,992.35
2022-08-26T00:58:06.594Z,992.27
2022-08-26T00:59:05.566Z,992.30
2022-08-26T01:00:05.613Z,992.31
2022-08-26T01:01:05.587Z,992.28
2022-08-26T01:02:05.604Z,992.24
2022-08-26T01:03:05.838Z,992.25
2022-08-26T01:04:06.514Z,992.27
2022-08-26T01:05:05.603Z,992.29
2022-08-26T01:06:05.481Z,992.25
2022-08-26T01:07:06.471Z,992.26
2022-08-26T01:08:05.522Z,992.25
2022-08-26T01:09:05.450Z,992.27
2022-08-26T01:10:05.530Z,992.30
2022-08-26T01:11:05.460Z,992.28
2022-08-26T01:12:05.441Z,992.26
2022-08-26T01:13:05.416Z,992.29
2022-08-26T01:14:05.396Z,992.32
2022-08-26T01:15:05.644Z,992.34
2022-08-26T01:16:05.488Z,992.38
2022-08-26T01:17:05.360Z,992.37
2022-08-26T01:18:05.347Z,992.37
2022-08-26T01:19:06.150Z,992.39
2022-08-26T01:20:05.385Z,992.41
2022-08-26T01:21:05.342Z,992.43
2022-08-26T01:22:05.301Z,992.42
2022-08-26T01:23:05.392Z,992.42
2022-08-26T01:24:05.299Z,992.42
2022-08-26T01:25:05.274Z,992.44
2022-08-26T01:26:05.271Z,992.47
2022-08-26T01:27:05.339Z,992.46
2022-08-26T01:28:05.270Z,992.43
2022-08-26T01:29:05.228Z,992.43
2022-08-26T01:30:05.233Z,992.48
2022-08-26T01:31:05.231Z,992.44
2022-08-26T01:32:05.299Z,992.46
2022-08-26T01:33:05.200Z,992.46
2022-08-26T01:34:05.153Z,992.45
2022-08-26T01:35:05.135Z,992.47
2022-08-26T01:36:05.161Z,992.44
2022-08-26T01:37:05.366Z,992.51
2022-08-26T01:38:05.123Z,992.54
2022-08-26T01:39:05.954Z,992.47
2022-08-26T01:40:05.191Z,992.55
2022-08-26T01:41:14.150Z,992.55
2022-08-26T01:42:06.077Z,992.59
2022-08-26T01:43:05.163Z,992.58
2022-08-26T01:44:05.047Z,992.57
2022-08-26T01:45:05.059Z,992.59
2022-08-26T01:46:05.092Z,992.58
2022-08-26T01:47:05.202Z,992.62
2022-08-26T01:48:05.031Z,992.59
2022-08-26T01:49:06.564Z,992.65
2022-08-26T01:50:04.988Z,992.57
2022-08-26T01:51:04.960Z,992.61
2022-08-26T01:52:04.936Z,992.64
2022-08-26T01:53:05.169Z,992.55
2022-08-26T01:54:04.912Z,992.64
2022-08-26T01:55:04.897Z,992.57
2022-08-26T01:56:04.912Z,992.68
2022-08-26T01:57:04.889Z,992.64
2022-08-26T01:58:05.195Z,992.67
2022-08-26T01:59:04.942Z,992.71
2022-08-26T02:00:04.837Z,992.71
2022-08-26T02:01:04.889Z,992.74
2022-08-26T02:02:04.861Z,992.70
2022-08-26T02:03:04.801Z,992.72
2022-08-26T02:04:04.910Z,992.74
2022-08-26T02:05:04.782Z,992.77
2022-08-26T02:06:04.789Z,992.79
2022-08-26T02:07:04.771Z,992.79
2022-08-26T02:08:04.740Z,992.82
2022-08-26T02:09:04.750Z,992.82
2022-08-26T02:10:04.715Z,992.75
2022-08-26T02:11:04.714Z,992.80
2022-08-26T02:12:04.693Z,992.77
2022-08-26T02:13:04.759Z,992.80
2022-08-26T02:14:04.730Z,992.80
2022-08-26T02:15:05.748Z,992.79
2022-08-26T02:16:04.712Z,992.85
2022-08-26T02:17:04.643Z,992.77
2022-08-26T02:18:04.627Z,992.79
2022-08-26T02:19:04.626Z,992.78
2022-08-26T02:20:04.706Z,992.77
2022-08-26T02:21:06.712Z,992.77
2022-08-26T02:22:04.583Z,992.78
2022-08-26T02:23:04.638Z,992.72
2022-08-26T02:24:04.558Z,992.73
2022-08-26T02:25:04.565Z,992.77
2022-08-26T02:26:04.571Z,992.74
2022-08-26T02:27:04.526Z,992.75
2022-08-26T02:28:04.583Z,992.73
2022-08-26T02:29:04.508Z,992.74
2022-08-26T02:30:04.488Z,992.81
2022-08-26T02:31:04.682Z,992.76
2022-08-26T02:32:04.468Z,992.75
2022-08-26T02:33:04.490Z,992.75
2022-08-26T02:34:04.450Z,992.73
2022-08-26T02:35:04.462Z,992.77
2022-08-26T02:36:04.444Z,992.73
2022-08-26T02:37:04.493Z,992.74
2022-08-26T02:38:09.922Z,992.76
2022-08-26T02:39:05.402Z,992.77
2022-08-26T02:40:04.416Z,992.74
2022-08-26T02:41:04.365Z,992.73
2022-08-26T02:42:04.359Z,992.74
2022-08-26T02:43:04.407Z,992.72
2022-08-26T02:44:04.402Z,992.75
2022-08-26T02:45:04.331Z,992.74
2022-08-26T02:46:04.318Z,992.72
2022-08-26T02:47:04.344Z,992.74
2022-08-26T02:48:04.294Z,992.73
2022-08-26T02:49:04.367Z,992.71
2022-08-26T02:50:04.277Z,992.72
2022-08-26T02:51:04.255Z,992.72
2022-08-26T02:52:04.241Z,992.75
2022-08-26T02:53:04.284Z,992.77
2022-08-26T02:54:04.305Z,992.73
2022-08-26T02:55:04.212Z,992.73
2022-08-26T02:56:04.194Z,992.74
2022-08-26T02:57:04.187Z,992.77
2022-08-26T02:58:04.166Z,992.77
2022-08-26T02:59:04.187Z,992.82
2022-08-26T03:00:04.178Z,992.77
2022-08-26T03:01:04.908Z,992.74
2022-08-26T03:02:04.182Z,992.79
2022-08-26T03:03:04.280Z,992.76
2022-08-26T03:04:04.106Z,992.80
2022-08-26T03:05:04.093Z,992.73
2022-08-26T03:06:04.250Z,992.78
2022-08-26T03:07:04.067Z,992.79
2022-08-26T03:08:04.084Z,992.76
2022-08-26T03:09:04.053Z,992.76
2022-08-26T03:10:08.389Z,992.73
2022-08-26T03:11:04.101Z,992.72
2022-08-26T03:12:04.006Z,992.71
2022-08-26T03:13:05.172Z,992.72
2022-08-26T03:14:03.994Z,992.73
2022-08-26T03:15:17.351Z,992.69
2022-08-26T03:16:05.007Z,992.72
2022-08-26T03:17:03.998Z,992.65
2022-08-26T03:18:03.942Z,992.66
2022-08-26T03:19:03.933Z,992.69
2022-08-26T03:20:03.927Z,992.68
2022-08-26T03:21:03.904Z,992.72
2022-08-26T03:22:03.902Z,992.74
2022-08-26T03:23:04.148Z,992.74
2022-08-26T03:24:03.930Z,992.75
2022-08-26T03:25:03.869Z,992.76
2022-08-26T03:26:03.846Z,992.74
2022-08-26T03:27:05.907Z,992.75
2022-08-26T03:28:03.842Z,992.75
2022-08-26T03:29:03.907Z,992.72
2022-08-26T03:30:03.799Z,992.75
2022-08-26T03:31:03.870Z,992.72
2022-08-26T03:32:03.778Z,992.72
2022-08-26T03:33:03.786Z,992.75
2022-08-26T03:34:03.776Z,992.76
2022-08-26T03:35:03.785Z,992.72
2022-08-26T03:36:03.759Z,992.78
2022-08-26T03:37:03.747Z,992.81
2022-08-26T03:38:03.727Z,992.81
2022-08-26T03:39:03.712Z,992.80
2022-08-26T03:40:03.741Z,992.83
2022-08-26T03:41:03.765Z,992.81
2022-08-26T03:42:03.665Z,992.75
2022-08-26T03:43:03.794Z,992.83
2022-08-26T03:44:03.656Z,992.76
2022-08-26T03:45:03.632Z,992.79
2022-08-26T03:46:03.728Z,992.79
2022-08-26T03:47:03.633Z,992.76
2022-08-26T03:48:03.606Z,992.76
2022-08-26T03:49:03.595Z,992.74
2022-08-26T03:50:03.580Z,992.73
2022-08-26T03:51:03.569Z,992.69
2022-08-26T03:52:03.578Z,992.70
2022-08-26T03:53:03.655Z,992.73
2022-08-26T03:54:03.539Z,992.77
2022-08-26T03:55:03.510Z,992.74
2022-08-26T03:56:03.513Z,992.73
2022-08-26T03:57:03.510Z,992.76
2022-08-26T03:58:03.586Z,992.75
2022-08-26T03:59:03.518Z,992.74
2022-08-26T04:00:03.477Z,992.73
2022-08-26T04:01:03.436Z,992.70
2022-08-26T04:02:03.473Z,992.75
2022-08-26T04:03:04.566Z,992.77
2022-08-26T04:04:03.406Z,992.76
2022-08-26T04:05:03.387Z,992.80
2022-08-26T04:06:03.382Z,992.77
2022-08-26T04:07:03.367Z,992.79
2022-08-26T04:08:03.360Z,992.82
2022-08-26T04:09:03.369Z,992.78
2022-08-26T04:10:03.327Z,992.80
2022-08-26T04:11:03.316Z,992.80
2022-08-26T04:12:03.327Z,992.86
2022-08-26T04:13:03.298Z,992.80
2022-08-26T04:14:03.368Z,992.83
2022-08-26T04:15:03.266Z,992.82
2022-08-26T04:16:03.369Z,992.87
2022-08-26T04:17:03.259Z,992.79
2022-08-26T04:18:03.238Z,992.80
2022-08-26T04:19:03.219Z,992.84
2022-08-26T04:20:03.301Z,992.86
2022-08-26T04:21:03.199Z,992.85
2022-08-26T04:22:03.182Z,992.83
2022-08-26T04:23:03.185Z,992.85
2022-08-26T04:24:03.390Z,992.82
2022-08-26T04:25:03.158Z,992.86
2022-08-26T04:26:03.196Z,992.82
2022-08-26T04:27:03.143Z,992.83
2022-08-26T04:28:03.126Z,992.79
2022-08-26T04:29:03.114Z,992.82
2022-08-26T04:30:03.098Z,992.77
2022-08-26T04:31:03.295Z,992.79
2022-08-26T04:32:03.106Z,992.80
2022-08-26T04:33:03.088Z,992.78
2022-08-26T04:34:03.044Z,992.79
2022-08-26T04:35:03.037Z,992.77
2022-08-26T04:36:03.023Z,992.77
2022-08-26T04:37:03.043Z,992.78
2022-08-26T04:38:03.020Z,992.80
2022-08-26T04:39:02.980Z,992.79
2022-08-26T04:40:03.066Z,992.83
2022-08-26T04:41:02.969Z,992.83
2022-08-26T04:42:02.962Z,992.84
2022-08-26T04:43:02.962Z,992.88
2022-08-26T04:44:02.959Z,992.89
2022-08-26T04:45:05.771Z,992.89
2022-08-26T04:46:03.966Z,992.88
2022-08-26T04:47:03.049Z,992.87
2022-08-26T04:48:02.967Z,992.90
2022-08-26T04:49:02.858Z,992.92
2022-08-26T04:50:02.873Z,992.91
2022-08-26T04:51:02.838Z,992.93
2022-08-26T04:52:02.844Z,992.94
2022-08-26T04:53:02.839Z,992.97
2022-08-26T04:54:02.797Z,992.93
2022-08-26T04:55:02.784Z,992.95
2022-08-26T04:56:02.776Z,992.92
2022-08-26T04:57:02.786Z,992.99
2022-08-26T04:58:02.771Z,992.99
2022-08-26T04:59:02.746Z,992.96
2022-08-26T05:00:02.737Z,992.97
2022-08-26T05:01:02.722Z,993.04
2022-08-26T05:02:02.781Z,993.04
2022-08-26T05:03:02.759Z,993.07
2022-08-26T05:04:02.823Z,993.05
2022-08-26T05:05:03.663Z,993.04
2022-08-26T05:06:02.663Z,993.05
2022-08-26T05:07:03.181Z,993.08
2022-08-26T05:08:02.634Z,993.08
2022-08-26T05:09:02.696Z,993.14
2022-08-26T05:10:02.613Z,993.10
2022-08-26T05:11:02.624Z,993.09
2022-08-26T05:12:02.603Z,993.05
2022-08-26T05:13:02.579Z,993.06
2022-08-26T05:14:02.615Z,993.06
2022-08-26T05:15:02.552Z,993.10
2022-08-26T05:16:02.598Z,993.10
2022-08-26T05:17:02.536Z,993.11
2022-08-26T05:18:02.523Z,993.11
2022-08-26T05:19:02.573Z,993.13
2022-08-26T05:20:02.531Z,993.07
2022-08-26T05:21:02.525Z,993.07
2022-08-26T05:22:02.475Z,993.15
2022-08-26T05:23:02.506Z,993.08
2022-08-26T05:24:02.467Z,993.14
2022-08-26T05:25:02.432Z,993.13
2022-08-26T05:26:02.433Z,993.12
2022-08-26T05:27:02.415Z,993.13
2022-08-26T05:28:03.416Z,993.11
2022-08-26T05:29:02.460Z,993.10
2022-08-26T05:30:02.373Z,993.16
2022-08-26T05:31:02.413Z,993.12
2022-08-26T05:32:02.360Z,993.14
2022-08-26T05:33:02.336Z,993.12
2022-08-26T05:34:03.608Z,993.13
2022-08-26T05:35:02.310Z,993.14
2022-08-26T05:36:02.296Z,993.12
2022-08-26T05:37:02.288Z,993.10
2022-08-26T05:38:02.272Z,993.10
2022-08-26T05:39:02.264Z,993.14
2022-08-26T05:40:02.363Z,993.12
2022-08-26T05:41:02.263Z,993.13
2022-08-26T05:42:02.319Z,993.11
2022-08-26T05:43:02.285Z,993.11
2022-08-26T05:44:02.206Z,993.13
2022-08-26T05:45:02.194Z,993.12
2022-08-26T05:46:02.244Z,993.16
2022-08-26T05:47:02.177Z,993.15
2022-08-26T05:48:02.156Z,993.16
2022-08-26T05:49:02.144Z,993.16
2022-08-26T05:50:02.129Z,993.21
2022-08-26T05:51:02.142Z,993.18
2022-08-26T05:52:02.115Z,993.18
2022-08-26T05:53:02.175Z,993.17
2022-08-26T05:54:02.080Z,993.19
2022-08-26T05:55:02.098Z,993.18
2022-08-26T05:56:02.185Z,993.22
2022-08-26T05:57:02.055Z,993.23
2022-08-26T05:58:02.712Z,993.25
2022-08-26T05:59:02.026Z,993.24
2022-08-26T06:00:02.072Z,993.23
2022-08-26T06:01:02.026Z,993.26
2022-08-26T06:02:02.052Z,993.26
2022-08-26T06:03:02.084Z,993.26
2022-08-26T06:04:02.041Z,993.30
2022-08-26T06:05:02.026Z,993.27
2022-08-26T06:06:01.990Z,993.30
2022-08-26T06:07:01.959Z,993.28
2022-08-26T06:08:01.922Z,993.31
2022-08-26T06:09:02.782Z,993.29
2022-08-26T06:10:30.527Z,993.24
2022-08-26T06:11:02.975Z,993.26
2022-08-26T06:12:01.925Z,993.23
2022-08-26T06:13:09.229Z,993.29
2022-08-26T06:14:03.964Z,993.25
2022-08-26T06:15:01.845Z,993.27
2022-08-26T06:16:01.884Z,993.31
2022-08-26T06:17:01.846Z,993.30
2022-08-26T06:18:01.821Z,993.29
2022-08-26T06:19:01.839Z,993.31
2022-08-26T06:20:01.787Z,993.31
2022-08-26T06:21:01.790Z,993.34
2022-08-26T06:22:01.761Z,993.32
2022-08-26T06:23:01.791Z,993.36
2022-08-26T06:24:01.790Z,993.31
2022-08-26T06:25:01.747Z,993.31
2022-08-26T06:26:01.747Z,993.33
2022-08-26T06:27:01.851Z,993.30
2022-08-26T06:28:01.688Z,993.32
2022-08-26T06:29:01.763Z,993.28
2022-08-26T06:30:01.667Z,993.30
2022-08-26T06:31:01.701Z,993.27
2022-08-26T06:32:01.643Z,993.32
2022-08-26T06:33:01.667Z,993.30
2022-08-26T06:34:01.624Z,993.29
2022-08-26T06:35:01.733Z,993.25
2022-08-26T06:36:01.601Z,993.34
2022-08-26T06:37:01.938Z,993.28
2022-08-26T06:38:01.571Z,993.30
2022-08-26T06:39:01.564Z,993.33
2022-08-26T06:40:01.740Z,993.34
2022-08-26T06:41:02.191Z,993.33
2022-08-26T06:42:02.642Z,993.35
2022-08-26T06:43:01.569Z,993.40
2022-08-26T06:44:01.537Z,993.41
2022-08-26T06:45:01.503Z,993.38
2022-08-26T06:46:01.554Z,993.40
2022-08-26T06:47:01.506Z,993.40
2022-08-26T06:48:01.458Z,993.39
2022-08-26T06:49:01.457Z,993.42
2022-08-26T06:50:01.491Z,993.39
2022-08-26T06:51:01.425Z,993.41
2022-08-26T06:52:01.456Z,993.41
2022-08-26T06:53:01.492Z,993.42
2022-08-26T06:54:01.417Z,993.42
2022-08-26T06:55:01.379Z,993.45
2022-08-26T06:56:01.389Z,993.43
2022-08-26T06:57:01.740Z,993.47
2022-08-26T06:58:01.382Z,993.45
2022-08-26T06:59:01.348Z,993.46
2022-08-26T07:00:01.351Z,993.51
2022-08-26T07:01:09.064Z,993.44
2022-08-26T07:02:02.415Z,993.50
2022-08-26T07:03:01.367Z,993.50
2022-08-26T07:04:01.288Z,993.50
2022-08-26T07:05:01.376Z,993.44
2022-08-26T07:06:01.268Z,993.48
2022-08-26T07:07:01.252Z,993.45
2022-08-26T07:08:01.300Z,993.53
2022-08-26T07:09:01.241Z,993.51
2022-08-26T07:10:01.231Z,993.51
2022-08-26T07:11:01.206Z,993.49
2022-08-26T07:12:01.250Z,993.46
2022-08-26T07:13:01.220Z,993.50
2022-08-26T07:14:01.210Z,993.44
2022-08-26T07:15:01.160Z,993.48
2022-08-26T07:16:03.037Z,993.47
2022-08-26T07:17:01.127Z,993.47
2022-08-26T07:18:01.151Z,993.48
2022-08-26T07:19:01.244Z,993.50
2022-08-26T07:20:01.116Z,993.52
2022-08-26T07:21:01.123Z,993.51
2022-08-26T07:22:01.086Z,993.53
2022-08-26T07:23:01.174Z,993.58
2022-08-26T07:24:01.403Z,993.56
2022-08-26T07:25:01.042Z,993.59
2022-08-26T07:26:01.044Z,993.52
2022-08-26T07:27:01.011Z,993.57
2022-08-26T07:28:01.004Z,993.55
2022-08-26T07:29:01.042Z,993.53
2022-08-26T07:30:00.978Z,993.58
2022-08-26T07:31:01.086Z,993.59
2022-08-26T07:32:00.990Z,993.56
2022-08-26T07:33:00.948Z,993.57
2022-08-26T07:34:01.022Z,993.62
2022-08-26T07:35:00.949Z,993.63
2022-08-26T07:36:00.916Z,993.63
2022-08-26T07:37:01.019Z,993.66
2022-08-26T07:38:00.900Z,993.64
2022-08-26T07:39:00.879Z,993.67
2022-08-26T07:40:00.954Z,993.67
2022-08-26T07:41:00.900Z,993.67
2022-08-26T07:42:00.937Z,993.69
2022-08-26T07:43:00.949Z,993.69
2022-08-26T07:44:00.818Z,993.70
2022-08-26T07:45:00.807Z,993.72
2022-08-26T07:46:00.848Z,993.75
2022-08-26T07:47:00.802Z,993.73
2022-08-26T07:48:00.793Z,993.78
2022-08-26T07:49:00.791Z,993.77
2022-08-26T07:50:00.752Z,993.75
2022-08-26T07:51:00.776Z,993.77
2022-08-26T07:52:00.767Z,993.74
2022-08-26T07:53:00.718Z,993.72
2022-08-26T07:54:00.705Z,993.74
2022-08-26T07:55:00.734Z,993.74
2022-08-26T07:56:00.685Z,993.74
2022-08-26T07:57:00.779Z,993.73
2022-08-26T07:58:00.657Z,993.73
2022-08-26T07:59:00.702Z,993.77
2022-08-26T08:00:00.633Z,993.76
2022-08-26T08:01:00.684Z,993.76
2022-08-26T08:02:00.690Z,993.81
2022-08-26T08:03:00.664Z,993.79
2022-08-26T08:04:00.603Z,993.79
2022-08-26T08:05:00.602Z,993.79
2022-08-26T08:06:00.568Z,993.82
2022-08-26T08:07:00.577Z,993.78
2022-08-26T08:08:21.841Z,993.81
2022-08-26T08:09:01.534Z,993.85
2022-08-26T08:10:00.521Z,993.86
2022-08-26T08:11:00.530Z,993.91
2022-08-26T08:12:00.510Z,993.93
2022-08-26T08:13:00.489Z,993.87
2022-08-26T08:14:00.533Z,993.80
2022-08-26T08:15:00.467Z,993.85
2022-08-26T08:16:00.470Z,993.85
2022-08-26T08:17:00.655Z,993.82
2022-08-26T08:18:01.051Z,993.78
2022-08-26T08:19:00.437Z,993.85
2022-08-26T08:20:00.416Z,993.81
2022-08-26T08:21:21.350Z,993.82
2022-08-26T08:22:01.380Z,993.87
2022-08-26T08:23:00.378Z,993.91
2022-08-26T08:24:00.368Z,993.90
2022-08-26T08:25:00.387Z,993.86
2022-08-26T08:26:00.363Z,993.86
2022-08-26T08:27:00.341Z,993.91
2022-08-26T08:28:00.334Z,993.90
2022-08-26T08:29:00.331Z,993.92
2022-08-26T08:30:00.351Z,993.90
2022-08-26T08:31:00.428Z,993.91
2022-08-26T08:32:00.349Z,993.89
2022-08-26T08:33:00.310Z,993.86
2022-08-26T08:34:00.260Z,993.90
2022-08-26T08:35:00.253Z,993.92
2022-08-26T08:36:00.234Z,993.95
2022-08-26T08:37:00.320Z,993.98
2022-08-26T08:38:00.202Z,993.90
2022-08-26T08:39:00.202Z,993.93
2022-08-26T08:40:00.319Z,993.98
2022-08-26T08:41:00.175Z,993.97
2022-08-26T08:42:00.267Z,993.91
2022-08-26T08:43:00.149Z,993.97
2022-08-26T08:44:00.193Z,993.94
2022-08-26T08:45:00.147Z,993.97
2022-08-26T08:46:00.159Z,993.92
2022-08-26T08:47:00.142Z,993.88
2022-08-26T08:48:00.117Z,993.94
2022-08-26T08:49:00.106Z,993.94
2022-08-26T08:50:00.105Z,993.93
2022-08-26T08:51:00.061Z,993.99
2022-08-26T08:52:00.118Z,993.98
2022-08-26T08:53:00.082Z,993.96
2022-08-26T08:54:00.031Z,993.95
2022-08-26T08:55:00.022Z,993.94
2022-08-26T08:56:00.021Z,993.96
2022-08-26T08:56:59.992Z,993.97
2022-08-26T08:58:02.223Z,994.02
2022-08-26T08:58:59.967Z,993.98
2022-08-26T09:00:00.001Z,993.97
2022-08-26T09:00:59.990Z,993.97
2022-08-26T09:01:59.995Z,994.00
2022-08-26T09:02:59.967Z,994.06
2022-08-26T09:03:59.932Z,993.95
2022-08-26T09:04:59.972Z,993.97
2022-08-26T09:05:59.934Z,994.01
2022-08-26T09:06:59.929Z,993.97
2022-08-26T09:07:59.955Z,994.00
2022-08-26T09:08:59.861Z,993.94
2022-08-26T09:09:59.906Z,993.95
2022-08-26T09:10:59.844Z,994.06
2022-08-26T09:11:59.846Z,994.02
2022-08-26T09:12:59.864Z,994.03
2022-08-26T09:14:00.309Z,994.00
2022-08-26T09:14:59.799Z,994.01
2022-08-26T09:15:59.797Z,994.00
2022-08-26T09:16:59.974Z,993.98
2022-08-26T09:17:59.791Z,994.01
2022-08-26T09:18:59.858Z,993.96
2022-08-26T09:19:59.744Z,994.01
2022-08-26T09:20:59.726Z,993.97
2022-08-26T09:21:59.732Z,993.98
2022-08-26T09:22:59.736Z,994.03
2022-08-26T09:23:59.718Z,993.95
2022-08-26T09:24:59.688Z,994.01
2022-08-26T09:25:59.697Z,994.01
2022-08-26T09:26:59.664Z,994.02
2022-08-26T09:27:59.656Z,994.04
2022-08-26T09:28:59.677Z,994.09
2022-08-26T09:29:59.628Z,994.11
2022-08-26T09:30:59.734Z,994.11
2022-08-26T09:31:59.612Z,994.11
2022-08-26T09:32:59.602Z,994.12
2022-08-26T09:33:59.602Z,994.10
2022-08-26T09:34:59.615Z,994.15
2022-08-26T09:35:59.578Z,994.10
2022-08-26T09:36:59.572Z,994.09
2022-08-26T09:37:59.550Z,994.10
2022-08-26T09:38:59.568Z,994.03
2022-08-26T09:39:59.744Z,994.00
2022-08-26T09:40:59.726Z,994.07
2022-08-26T09:41:59.515Z,994.01
2022-08-26T09:42:59.488Z,994.00
2022-08-26T09:43:59.541Z,993.99
2022-08-26T09:44:59.561Z,994.03
2022-08-26T09:45:59.889Z,994.03
2022-08-26T09:46:59.451Z,994.05
2022-08-26T09:48:01.465Z,994.13
2022-08-26T09:48:59.424Z,994.08
2022-08-26T09:49:59.451Z,994.06
2022-08-26T09:50:59.416Z,994.04
2022-08-26T09:51:59.406Z,994.05
2022-08-26T09:52:59.386Z,994.04
2022-08-26T09:53:59.372Z,994.04
2022-08-26T09:54:59.356Z,994.07
2022-08-26T09:55:59.402Z,994.05
2022-08-26T09:56:59.347Z,994.07
2022-08-26T09:58:03.581Z,994.04
2022-08-26T09:59:00.306Z,994.00
2022-08-26T09:59:59.291Z,994.03
2022-08-26T10:00:59.399Z,994.00
2022-08-26T10:01:59.334Z,994.00
2022-08-26T10:02:59.257Z,993.95
2022-08-26T10:03:59.327Z,993.96
2022-08-26T10:04:59.274Z,993.97
2022-08-26T10:06:00.271Z,993.97
2022-08-26T10:06:59.213Z,993.95
2022-08-26T10:07:59.648Z,993.98
2022-08-26T10:08:59.347Z,993.91
2022-08-26T10:09:59.202Z,993.97
2022-08-26T10:10:59.192Z,993.95
2022-08-26T10:11:59.167Z,993.97
2022-08-26T10:12:59.146Z,993.95
2022-08-26T10:13:59.197Z,993.98
2022-08-26T10:14:59.147Z,993.91
2022-08-26T10:15:59.156Z,993.96
2022-08-26T10:16:59.199Z,993.91
2022-08-26T10:17:59.091Z,993.96
2022-08-26T10:19:00.506Z,993.94
2022-08-26T10:19:59.079Z,993.94
2022-08-26T10:20:59.054Z,993.87
2022-08-26T10:21:59.127Z,993.87
2022-08-26T10:22:59.121Z,993.85
2022-08-26T10:23:59.052Z,993.90
2022-08-26T10:24:59.026Z,993.92
2022-08-26T10:25:59.355Z,993.85
2022-08-26T10:26:59.031Z,993.85
2022-08-26T10:27:58.974Z,993.82
2022-08-26T10:28:58.989Z,993.81
2022-08-26T10:29:58.986Z,993.79
2022-08-26T10:30:58.944Z,993.82
2022-08-26T10:32:02.691Z,993.77
2022-08-26T10:32:58.926Z,993.83
2022-08-26T10:34:00.415Z,993.88
2022-08-26T10:34:58.914Z,993.86
2022-08-26T10:35:58.945Z,993.84
2022-08-26T10:37:13.948Z,993.93
2022-08-26T10:37:59.903Z,993.84
2022-08-26T10:38:58.878Z,993.90
2022-08-26T10:39:59.345Z,993.89
2022-08-26T10:40:58.866Z,993.87
2022-08-26T10:41:58.888Z,993.85
2022-08-26T10:42:58.815Z,993.87
2022-08-26T10:43:58.820Z,993.87
2022-08-26T10:44:58.899Z,993.84
2022-08-26T10:45:58.876Z,993.85
2022-08-26T10:46:58.771Z,993.81
2022-08-26T10:47:58.789Z,993.79
2022-08-26T10:48:59.914Z,993.79
2022-08-26T10:50:03.385Z,993.80
2022-08-26T10:50:58.724Z,993.86
2022-08-26T10:51:58.715Z,993.85
2022-08-26T10:52:58.743Z,993.92
2022-08-26T10:53:58.699Z,993.89
2022-08-26T10:54:58.677Z,993.85
2022-08-26T10:55:58.666Z,993.86
2022-08-26T10:56:58.662Z,993.79
2022-08-26T10:57:58.696Z,993.84
2022-08-26T10:58:58.651Z,993.86
2022-08-26T10:59:58.624Z,993.88
2022-08-26T11:00:58.697Z,993.88
2022-08-26T11:01:58.603Z,993.86
2022-08-26T11:02:58.596Z,993.87
2022-08-26T11:03:58.644Z,993.82
2022-08-26T11:04:58.579Z,993.85
2022-08-26T11:05:58.568Z,993.91
2022-08-26T11:06:58.582Z,993.89
2022-08-26T11:07:58.539Z,993.85
2022-08-26T11:08:58.527Z,993.88
2022-08-26T11:09:58.544Z,993.87
2022-08-26T11:10:59.103Z,993.88
2022-08-26T11:11:58.533Z,993.83
2022-08-26T11:12:58.488Z,993.86
2022-08-26T11:13:58.468Z,993.91
2022-08-26T11:14:59.387Z,993.87
2022-08-26T11:15:58.450Z,993.84
2022-08-26T11:16:58.519Z,993.84
2022-08-26T11:17:58.434Z,993.86
2022-08-26T11:18:58.413Z,993.85
2022-08-26T11:20:01.962Z,993.81
2022-08-26T11:20:58.416Z,993.85
2022-08-26T11:21:58.385Z,993.86
2022-08-26T11:22:59.639Z,993.83
2022-08-26T11:23:58.361Z,993.88
2022-08-26T11:24:58.349Z,993.87
2022-08-26T11:25:58.406Z,993.86
2022-08-26T11:26:58.324Z,993.85
2022-08-26T11:27:58.318Z,993.85
2022-08-26T11:28:58.302Z,993.88
2022-08-26T11:29:58.295Z,993.90
2022-08-26T11:30:58.525Z,993.90
2022-08-26T11:31:58.353Z,993.86
2022-08-26T11:32:58.258Z,993.90
2022-08-26T11:33:58.251Z,993.91
2022-08-26T11:34:58.412Z,993.89
2022-08-26T11:35:58.221Z,993.88
2022-08-26T11:36:58.262Z,993.92
2022-08-26T11:37:58.198Z,993.95
2022-08-26T11:38:58.197Z,993.84
2022-08-26T11:39:58.258Z,993.91
2022-08-26T11:40:58.172Z,993.86
2022-08-26T11:41:58.158Z,993.94
2022-08-26T11:42:58.176Z,993.91
2022-08-26T11:43:58.135Z,993.91
2022-08-26T11:44:58.337Z,993.91
2022-08-26T11:45:58.166Z,993.89
2022-08-26T11:46:58.098Z,993.86
2022-08-26T11:47:58.110Z,993.77
2022-08-26T11:48:58.076Z,993.73
2022-08-26T11:49:58.067Z,993.78
2022-08-26T11:50:58.061Z,993.79
2022-08-26T11:51:58.053Z,993.78
2022-08-26T11:52:58.073Z,993.82
2022-08-26T11:53:58.023Z,993.83
2022-08-26T11:54:58.012Z,993.84
2022-08-26T11:55:58.000Z,993.77
2022-08-26T11:56:58.002Z,993.83
2022-08-26T11:57:58.002Z,993.77
2022-08-26T11:58:57.963Z,993.78
2022-08-26T11:59:58.056Z,993.74
2022-08-26T12:00:57.950Z,993.76
2022-08-26T12:01:57.940Z,993.78
2022-08-26T12:02:57.955Z,993.80
2022-08-26T12:03:58.412Z,993.83
2022-08-26T12:04:57.903Z,993.82
2022-08-26T12:05:57.912Z,993.85
2022-08-26T12:06:57.878Z,993.85
2022-08-26T12:07:57.865Z,993.82
2022-08-26T12:08:57.883Z,993.89
2022-08-26T12:09:57.851Z,993.80
2022-08-26T12:10:57.870Z,993.73
2022-08-26T12:11:58.042Z,993.69
2022-08-26T12:12:57.816Z,993.76
2022-08-26T12:13:57.827Z,993.71
2022-08-26T12:14:57.812Z,993.72
2022-08-26T12:15:57.778Z,993.66
2022-08-26T12:16:57.770Z,993.69
2022-08-26T12:17:57.862Z,993.75
2022-08-26T12:18:57.749Z,993.70
2022-08-26T12:19:57.798Z,993.78
2022-08-26T12:20:57.722Z,993.71
2022-08-26T12:21:57.710Z,993.76
2022-08-26T12:22:57.785Z,993.74
2022-08-26T12:23:57.692Z,993.76
2022-08-26T12:24:57.684Z,993.74
2022-08-26T12:25:57.758Z,993.80
2022-08-26T12:26:57.660Z,993.78
2022-08-26T12:27:57.680Z,993.77